sensor_id;sensor_type;location;lat;lon;timestamp;temperature;humidity
18321;DHT22;54904;54.350;18.664;2023-11-21T00:02:21;4.80;97.40
18321;DHT22;54904;54.350;18.664;2023-11-21T00:04:49;4.80;97.40
18321;DHT22;54904;54.350;18.664;2023-11-21T00:07:16;4.80;97.40
18321;DHT22;54904;54.350;18.664;2023-11-21T00:09:44;4.90;97.20
18321;DHT22;54904;54.350;18.664;2023-11-21T00:12:11;4.90;97.10
18321;DHT22;54904;54.350;18.664;2023-11-21T00:14:39;4.90;96.70
18321;DHT22;54904;54.350;18.664;2023-11-21T00:17:06;4.90;96.20
18321;DHT22;54904;54.350;18.664;2023-11-21T00:19:34;4.90;96.30
18321;DHT22;54904;54.350;18.664;2023-11-21T00:22:01;4.90;96.30
18321;DHT22;54904;54.350;18.664;2023-11-21T00:24:28;4.90;96.30
18321;DHT22;54904;54.350;18.664;2023-11-21T00:26:56;4.90;95.80
18321;DHT22;54904;54.350;18.664;2023-11-21T00:29:23;4.90;95.70
18321;DHT22;54904;54.350;18.664;2023-11-21T00:31:51;4.90;95.30
18321;DHT22;54904;54.350;18.664;2023-11-21T00:34:18;4.90;94.90
18321;DHT22;54904;54.350;18.664;2023-11-21T00:36:45;4.80;94.70
18321;DHT22;54904;54.350;18.664;2023-11-21T00:39:12;4.80;94.70
18321;DHT22;54904;54.350;18.664;2023-11-21T00:41:40;4.70;93.70
18321;DHT22;54904;54.350;18.664;2023-11-21T00:44:09;4.70;92.80
18321;DHT22;54904;54.350;18.664;2023-11-21T00:46:36;4.70;93.10
18321;DHT22;54904;54.350;18.664;2023-11-21T00:49:03;4.70;93.50
18321;DHT22;54904;54.350;18.664;2023-11-21T00:51:30;4.70;93.70
18321;DHT22;54904;54.350;18.664;2023-11-21T00:53:59;4.70;94.00
18321;DHT22;54904;54.350;18.664;2023-11-21T00:56:26;4.70;94.20
18321;DHT22;54904;54.350;18.664;2023-11-21T00:58:53;4.70;94.30
18321;DHT22;54904;54.350;18.664;2023-11-21T01:01:22;4.70;94.20
18321;DHT22;54904;54.350;18.664;2023-11-21T01:03:50;4.70;94.10
18321;DHT22;54904;54.350;18.664;2023-11-21T01:06:17;4.80;94.00
18321;DHT22;54904;54.350;18.664;2023-11-21T01:08:45;4.80;93.50
18321;DHT22;54904;54.350;18.664;2023-11-21T01:11:12;4.70;93.50
18321;DHT22;54904;54.350;18.664;2023-11-21T01:13:40;4.70;93.20
18321;DHT22;54904;54.350;18.664;2023-11-21T01:16:08;4.70;93.20
18321;DHT22;54904;54.350;18.664;2023-11-21T01:18:37;4.70;93.40
18321;DHT22;54904;54.350;18.664;2023-11-21T01:21:06;4.70;93.20
18321;DHT22;54904;54.350;18.664;2023-11-21T01:23:33;4.70;93.40
18321;DHT22;54904;54.350;18.664;2023-11-21T01:26:00;4.70;93.30
18321;DHT22;54904;54.350;18.664;2023-11-21T01:28:29;4.70;93.30
18321;DHT22;54904;54.350;18.664;2023-11-21T01:30:57;4.70;93.30
18321;DHT22;54904;54.350;18.664;2023-11-21T01:33:24;4.70;93.30
18321;DHT22;54904;54.350;18.664;2023-11-21T01:35:53;4.70;93.10
18321;DHT22;54904;54.350;18.664;2023-11-21T01:38:20;4.70;92.80
18321;DHT22;54904;54.350;18.664;2023-11-21T01:40:47;4.70;92.70
18321;DHT22;54904;54.350;18.664;2023-11-21T01:43:14;4.80;92.80
18321;DHT22;54904;54.350;18.664;2023-11-21T01:45:42;4.80;92.50
18321;DHT22;54904;54.350;18.664;2023-11-21T01:48:11;4.80;92.60
18321;DHT22;54904;54.350;18.664;2023-11-21T01:50:40;4.80;92.50
18321;DHT22;54904;54.350;18.664;2023-11-21T01:53:12;4.80;92.50
18321;DHT22;54904;54.350;18.664;2023-11-21T01:55:40;4.80;92.20
18321;DHT22;54904;54.350;18.664;2023-11-21T01:58:09;4.70;92.00
18321;DHT22;54904;54.350;18.664;2023-11-21T02:00:37;4.80;92.10
18321;DHT22;54904;54.350;18.664;2023-11-21T02:03:04;4.80;92.20
18321;DHT22;54904;54.350;18.664;2023-11-21T02:05:32;4.80;92.20
18321;DHT22;54904;54.350;18.664;2023-11-21T02:08:00;4.80;92.10
18321;DHT22;54904;54.350;18.664;2023-11-21T02:10:30;4.80;91.70
18321;DHT22;54904;54.350;18.664;2023-11-21T02:12:57;4.80;91.50
18321;DHT22;54904;54.350;18.664;2023-11-21T02:15:27;4.80;91.50
18321;DHT22;54904;54.350;18.664;2023-11-21T02:17:55;4.80;91.30
18321;DHT22;54904;54.350;18.664;2023-11-21T02:20:24;4.70;91.40
18321;DHT22;54904;54.350;18.664;2023-11-21T02:22:54;4.70;91.10
18321;DHT22;54904;54.350;18.664;2023-11-21T02:25:23;4.70;91.20
18321;DHT22;54904;54.350;18.664;2023-11-21T02:27:51;4.80;91.20
18321;DHT22;54904;54.350;18.664;2023-11-21T02:30:20;4.80;91.10
18321;DHT22;54904;54.350;18.664;2023-11-21T02:32:47;4.80;91.00
18321;DHT22;54904;54.350;18.664;2023-11-21T02:35:15;4.80;90.90
18321;DHT22;54904;54.350;18.664;2023-11-21T02:37:42;4.80;90.60
18321;DHT22;54904;54.350;18.664;2023-11-21T02:40:11;4.70;90.80
18321;DHT22;54904;54.350;18.664;2023-11-21T02:42:39;4.80;90.90
18321;DHT22;54904;54.350;18.664;2023-11-21T02:45:07;4.80;90.80
18321;DHT22;54904;54.350;18.664;2023-11-21T02:47:35;4.80;90.80
18321;DHT22;54904;54.350;18.664;2023-11-21T02:50:02;4.80;90.80
18321;DHT22;54904;54.350;18.664;2023-11-21T02:52:30;4.80;90.90
18321;DHT22;54904;54.350;18.664;2023-11-21T02:54:59;4.80;91.00
18321;DHT22;54904;54.350;18.664;2023-11-21T02:57:27;4.80;91.10
18321;DHT22;54904;54.350;18.664;2023-11-21T02:59:54;4.90;91.30
18321;DHT22;54904;54.350;18.664;2023-11-21T03:02:21;4.80;91.30
18321;DHT22;54904;54.350;18.664;2023-11-21T03:04:49;4.90;91.40
18321;DHT22;54904;54.350;18.664;2023-11-21T03:07:16;4.90;91.40
18321;DHT22;54904;54.350;18.664;2023-11-21T03:09:44;4.90;91.40
18321;DHT22;54904;54.350;18.664;2023-11-21T03:12:12;5.00;91.50
18321;DHT22;54904;54.350;18.664;2023-11-21T03:14:40;5.00;91.40
18321;DHT22;54904;54.350;18.664;2023-11-21T03:17:07;5.00;91.50
18321;DHT22;54904;54.350;18.664;2023-11-21T03:19:34;5.00;91.50
18321;DHT22;54904;54.350;18.664;2023-11-21T03:22:01;4.90;91.30
18321;DHT22;54904;54.350;18.664;2023-11-21T03:24:30;4.90;91.40
18321;DHT22;54904;54.350;18.664;2023-11-21T03:26:57;4.90;91.40
18321;DHT22;54904;54.350;18.664;2023-11-21T03:29:25;4.90;91.40
18321;DHT22;54904;54.350;18.664;2023-11-21T03:31:53;4.90;91.20
18321;DHT22;54904;54.350;18.664;2023-11-21T03:34:24;4.90;91.30
18321;DHT22;54904;54.350;18.664;2023-11-21T03:36:50;4.90;90.90
18321;DHT22;54904;54.350;18.664;2023-11-21T03:39:18;4.90;91.10
18321;DHT22;54904;54.350;18.664;2023-11-21T03:41:46;4.90;91.10
18321;DHT22;54904;54.350;18.664;2023-11-21T03:44:13;4.90;91.20
18321;DHT22;54904;54.350;18.664;2023-11-21T03:46:40;4.90;91.20
18321;DHT22;54904;54.350;18.664;2023-11-21T03:49:11;4.90;91.10
18321;DHT22;54904;54.350;18.664;2023-11-21T03:51:38;4.90;91.00
18321;DHT22;54904;54.350;18.664;2023-11-21T03:54:05;4.90;90.80
18321;DHT22;54904;54.350;18.664;2023-11-21T03:56:33;4.90;90.70
18321;DHT22;54904;54.350;18.664;2023-11-21T03:59:00;4.80;90.70
18321;DHT22;54904;54.350;18.664;2023-11-21T04:01:27;4.80;90.90
18321;DHT22;54904;54.350;18.664;2023-11-21T04:03:54;4.80;90.90
18321;DHT22;54904;54.350;18.664;2023-11-21T04:06:24;4.80;90.90
18321;DHT22;54904;54.350;18.664;2023-11-21T04:08:51;4.80;90.80
18321;DHT22;54904;54.350;18.664;2023-11-21T04:11:18;4.80;90.90
18321;DHT22;54904;54.350;18.664;2023-11-21T04:13:45;4.80;90.80
18321;DHT22;54904;54.350;18.664;2023-11-21T04:16:13;4.80;90.70
18321;DHT22;54904;54.350;18.664;2023-11-21T04:18:40;4.80;90.80
18321;DHT22;54904;54.350;18.664;2023-11-21T04:21:07;4.80;90.90
18321;DHT22;54904;54.350;18.664;2023-11-21T04:23:36;4.80;91.00
18321;DHT22;54904;54.350;18.664;2023-11-21T04:26:03;4.80;90.60
18321;DHT22;54904;54.350;18.664;2023-11-21T04:28:30;4.80;90.60
18321;DHT22;54904;54.350;18.664;2023-11-21T04:30:57;4.70;90.70
18321;DHT22;54904;54.350;18.664;2023-11-21T04:33:24;4.70;90.70
18321;DHT22;54904;54.350;18.664;2023-11-21T04:35:51;4.80;90.70
18321;DHT22;54904;54.350;18.664;2023-11-21T04:38:18;4.80;90.70
18321;DHT22;54904;54.350;18.664;2023-11-21T04:40:47;4.80;90.70
18321;DHT22;54904;54.350;18.664;2023-11-21T04:43:14;4.80;90.80
18321;DHT22;54904;54.350;18.664;2023-11-21T04:45:41;4.90;90.90
18321;DHT22;54904;54.350;18.664;2023-11-21T04:48:08;4.90;90.90
18321;DHT22;54904;54.350;18.664;2023-11-21T04:50:35;4.90;91.00
18321;DHT22;54904;54.350;18.664;2023-11-21T04:53:02;4.90;91.20
18321;DHT22;54904;54.350;18.664;2023-11-21T04:55:31;4.90;91.10
18321;DHT22;54904;54.350;18.664;2023-11-21T04:57:59;4.90;91.20
18321;DHT22;54904;54.350;18.664;2023-11-21T05:00:26;4.90;91.30
18321;DHT22;54904;54.350;18.664;2023-11-21T05:02:53;4.80;91.40
18321;DHT22;54904;54.350;18.664;2023-11-21T05:05:20;4.80;91.50
18321;DHT22;54904;54.350;18.664;2023-11-21T05:07:48;4.90;91.60
18321;DHT22;54904;54.350;18.664;2023-11-21T05:10:15;4.90;91.70
18321;DHT22;54904;54.350;18.664;2023-11-21T05:12:43;4.90;91.80
18321;DHT22;54904;54.350;18.664;2023-11-21T05:15:14;4.90;91.90
18321;DHT22;54904;54.350;18.664;2023-11-21T05:17:43;4.90;92.10
18321;DHT22;54904;54.350;18.664;2023-11-21T05:20:12;4.90;92.20
18321;DHT22;54904;54.350;18.664;2023-11-21T05:22:40;4.90;92.30
18321;DHT22;54904;54.350;18.664;2023-11-21T05:25:08;4.90;92.40
18321;DHT22;54904;54.350;18.664;2023-11-21T05:27:35;5.00;92.50
18321;DHT22;54904;54.350;18.664;2023-11-21T05:30:03;5.00;92.50
18321;DHT22;54904;54.350;18.664;2023-11-21T05:32:32;4.90;92.50
18321;DHT22;54904;54.350;18.664;2023-11-21T05:35:00;4.90;92.70
18321;DHT22;54904;54.350;18.664;2023-11-21T05:37:27;4.90;92.80
18321;DHT22;54904;54.350;18.664;2023-11-21T05:39:54;4.90;92.90
18321;DHT22;54904;54.350;18.664;2023-11-21T05:42:23;4.90;92.80
18321;DHT22;54904;54.350;18.664;2023-11-21T05:44:50;5.00;92.80
18321;DHT22;54904;54.350;18.664;2023-11-21T05:47:17;5.00;92.80
18321;DHT22;54904;54.350;18.664;2023-11-21T05:49:46;5.00;92.80
18321;DHT22;54904;54.350;18.664;2023-11-21T05:52:16;4.90;92.80
18321;DHT22;54904;54.350;18.664;2023-11-21T05:54:43;5.00;92.80
18321;DHT22;54904;54.350;18.664;2023-11-21T05:57:10;5.00;92.80
18321;DHT22;54904;54.350;18.664;2023-11-21T05:59:38;5.00;92.80
18321;DHT22;54904;54.350;18.664;2023-11-21T06:02:05;5.00;92.90
18321;DHT22;54904;54.350;18.664;2023-11-21T06:04:33;5.00;92.90
18321;DHT22;54904;54.350;18.664;2023-11-21T06:07:01;5.00;92.90
18321;DHT22;54904;54.350;18.664;2023-11-21T06:09:29;5.00;92.90
18321;DHT22;54904;54.350;18.664;2023-11-21T06:11:56;4.90;92.90
18321;DHT22;54904;54.350;18.664;2023-11-21T06:14:24;4.90;92.90
18321;DHT22;54904;54.350;18.664;2023-11-21T06:16:51;4.90;92.90
18321;DHT22;54904;54.350;18.664;2023-11-21T06:19:18;4.90;93.00
18321;DHT22;54904;54.350;18.664;2023-11-21T06:21:46;4.90;92.90
18321;DHT22;54904;54.350;18.664;2023-11-21T06:24:15;4.90;93.00
18321;DHT22;54904;54.350;18.664;2023-11-21T06:26:42;4.90;93.40
18321;DHT22;54904;54.350;18.664;2023-11-21T06:29:10;4.90;93.10
18321;DHT22;54904;54.350;18.664;2023-11-21T06:31:40;4.90;93.20
18321;DHT22;54904;54.350;18.664;2023-11-21T06:34:11;4.90;93.20
18321;DHT22;54904;54.350;18.664;2023-11-21T06:36:38;4.90;93.20
18321;DHT22;54904;54.350;18.664;2023-11-21T06:39:05;4.90;93.30
18321;DHT22;54904;54.350;18.664;2023-11-21T06:41:35;5.00;93.30
18321;DHT22;54904;54.350;18.664;2023-11-21T06:44:04;4.90;93.30
18321;DHT22;54904;54.350;18.664;2023-11-21T06:46:31;4.90;93.30
18321;DHT22;54904;54.350;18.664;2023-11-21T06:48:59;4.90;93.30
18321;DHT22;54904;54.350;18.664;2023-11-21T06:51:26;4.90;93.60
18321;DHT22;54904;54.350;18.664;2023-11-21T06:53:53;4.90;93.20
18321;DHT22;54904;54.350;18.664;2023-11-21T06:56:20;4.90;93.10
18321;DHT22;54904;54.350;18.664;2023-11-21T06:58:48;4.90;93.10
18321;DHT22;54904;54.350;18.664;2023-11-21T07:01:15;4.90;93.10
18321;DHT22;54904;54.350;18.664;2023-11-21T07:03:42;4.90;93.20
18321;DHT22;54904;54.350;18.664;2023-11-21T07:06:10;4.90;93.20
18321;DHT22;54904;54.350;18.664;2023-11-21T07:08:37;4.90;93.20
18321;DHT22;54904;54.350;18.664;2023-11-21T07:11:04;4.90;93.00
18321;DHT22;54904;54.350;18.664;2023-11-21T07:13:31;4.90;92.90
18321;DHT22;54904;54.350;18.664;2023-11-21T07:16:00;4.90;93.00
18321;DHT22;54904;54.350;18.664;2023-11-21T07:18:27;4.90;93.00
18321;DHT22;54904;54.350;18.664;2023-11-21T07:20:54;4.80;93.00
18321;DHT22;54904;54.350;18.664;2023-11-21T07:23:21;4.80;93.10
18321;DHT22;54904;54.350;18.664;2023-11-21T07:25:49;4.80;93.20
18321;DHT22;54904;54.350;18.664;2023-11-21T07:28:16;4.90;93.30
18321;DHT22;54904;54.350;18.664;2023-11-21T07:30:43;4.90;93.40
18321;DHT22;54904;54.350;18.664;2023-11-21T07:33:12;4.90;93.80
18321;DHT22;54904;54.350;18.664;2023-11-21T07:35:39;5.00;93.50
18321;DHT22;54904;54.350;18.664;2023-11-21T07:38:06;5.00;93.40
18321;DHT22;54904;54.350;18.664;2023-11-21T07:40:33;5.00;93.40
18321;DHT22;54904;54.350;18.664;2023-11-21T07:43:00;5.10;93.40
18321;DHT22;54904;54.350;18.664;2023-11-21T07:45:28;5.10;93.40
18321;DHT22;54904;54.350;18.664;2023-11-21T07:47:55;5.20;93.40
18321;DHT22;54904;54.350;18.664;2023-11-21T07:50:23;5.30;93.30
18321;DHT22;54904;54.350;18.664;2023-11-21T07:52:50;5.40;93.20
18321;DHT22;54904;54.350;18.664;2023-11-21T07:55:20;5.60;93.30
18321;DHT22;54904;54.350;18.664;2023-11-21T07:57:47;5.70;93.20
18321;DHT22;54904;54.350;18.664;2023-11-21T08:00:14;5.90;92.90
18321;DHT22;54904;54.350;18.664;2023-11-21T08:02:42;5.80;92.80
18321;DHT22;54904;54.350;18.664;2023-11-21T08:05:08;5.80;92.60
18321;DHT22;54904;54.350;18.664;2023-11-21T08:07:37;5.80;92.80
18321;DHT22;54904;54.350;18.664;2023-11-21T08:10:06;5.70;92.90
18321;DHT22;54904;54.350;18.664;2023-11-21T08:12:34;5.70;93.00
18321;DHT22;54904;54.350;18.664;2023-11-21T08:15:01;5.80;92.90
18321;DHT22;54904;54.350;18.664;2023-11-21T08:17:29;5.80;92.30
18321;DHT22;54904;54.350;18.664;2023-11-21T08:19:58;5.80;92.30
18321;DHT22;54904;54.350;18.664;2023-11-21T08:22:25;5.80;92.30
18321;DHT22;54904;54.350;18.664;2023-11-21T08:24:53;5.90;92.00
18321;DHT22;54904;54.350;18.664;2023-11-21T08:27:21;5.90;91.50
18321;DHT22;54904;54.350;18.664;2023-11-21T08:29:48;5.80;91.50
18321;DHT22;54904;54.350;18.664;2023-11-21T08:32:16;5.80;91.50
18321;DHT22;54904;54.350;18.664;2023-11-21T08:34:43;5.80;91.40
18321;DHT22;54904;54.350;18.664;2023-11-21T08:37:11;5.80;91.40
18321;DHT22;54904;54.350;18.664;2023-11-21T08:39:38;5.80;91.30
18321;DHT22;54904;54.350;18.664;2023-11-21T08:42:10;5.90;91.50
18321;DHT22;54904;54.350;18.664;2023-11-21T08:44:37;6.00;91.60
18321;DHT22;54904;54.350;18.664;2023-11-21T08:47:05;6.00;91.80
18321;DHT22;54904;54.350;18.664;2023-11-21T08:49:33;6.20;92.00
18321;DHT22;54904;54.350;18.664;2023-11-21T08:52:00;6.30;91.90
18321;DHT22;54904;54.350;18.664;2023-11-21T08:54:27;6.30;91.80
18321;DHT22;54904;54.350;18.664;2023-11-21T08:56:54;6.40;91.60
18321;DHT22;54904;54.350;18.664;2023-11-21T08:59:25;6.30;91.50
18321;DHT22;54904;54.350;18.664;2023-11-21T09:01:52;6.40;91.60
18321;DHT22;54904;54.350;18.664;2023-11-21T09:04:19;6.40;91.20
18321;DHT22;54904;54.350;18.664;2023-11-21T09:06:46;6.40;90.90
18321;DHT22;54904;54.350;18.664;2023-11-21T09:09:13;6.40;90.70
18321;DHT22;54904;54.350;18.664;2023-11-21T09:11:40;6.40;90.40
18321;DHT22;54904;54.350;18.664;2023-11-21T09:14:10;6.40;90.10
18321;DHT22;54904;54.350;18.664;2023-11-21T09:16:40;6.40;89.70
18321;DHT22;54904;54.350;18.664;2023-11-21T09:19:07;6.50;88.90
18321;DHT22;54904;54.350;18.664;2023-11-21T09:21:34;6.50;88.50
18321;DHT22;54904;54.350;18.664;2023-11-21T09:24:01;6.50;88.40
18321;DHT22;54904;54.350;18.664;2023-11-21T09:26:29;6.50;87.90
18321;DHT22;54904;54.350;18.664;2023-11-21T09:28:56;6.40;87.30
18321;DHT22;54904;54.350;18.664;2023-11-21T09:31:23;6.40;86.60
18321;DHT22;54904;54.350;18.664;2023-11-21T09:33:52;6.40;86.80
18321;DHT22;54904;54.350;18.664;2023-11-21T09:36:19;6.40;85.60
18321;DHT22;54904;54.350;18.664;2023-11-21T09:38:48;6.40;85.40
18321;DHT22;54904;54.350;18.664;2023-11-21T09:41:21;6.40;85.30
18321;DHT22;54904;54.350;18.664;2023-11-21T09:43:52;6.50;85.90
18321;DHT22;54904;54.350;18.664;2023-11-21T09:46:22;6.50;85.30
18321;DHT22;54904;54.350;18.664;2023-11-21T09:48:56;6.60;85.20
18321;DHT22;54904;54.350;18.664;2023-11-21T09:51:27;6.70;84.10
18321;DHT22;54904;54.350;18.664;2023-11-21T09:54:02;6.90;84.00
18321;DHT22;54904;54.350;18.664;2023-11-21T09:56:32;7.30;83.40
18321;DHT22;54904;54.350;18.664;2023-11-21T09:59:03;7.50;82.00
18321;DHT22;54904;54.350;18.664;2023-11-21T10:01:33;7.50;81.80
18321;DHT22;54904;54.350;18.664;2023-11-21T10:04:03;7.30;81.80
18321;DHT22;54904;54.350;18.664;2023-11-21T10:06:32;7.20;81.90
18321;DHT22;54904;54.350;18.664;2023-11-21T10:09:00;7.10;82.00
18321;DHT22;54904;54.350;18.664;2023-11-21T10:11:30;7.00;81.60
18321;DHT22;54904;54.350;18.664;2023-11-21T10:13:59;6.90;80.90
18321;DHT22;54904;54.350;18.664;2023-11-21T10:16:26;6.90;81.20
18321;DHT22;54904;54.350;18.664;2023-11-21T10:18:55;6.80;81.40
18321;DHT22;54904;54.350;18.664;2023-11-21T10:21:24;6.80;82.10
18321;DHT22;54904;54.350;18.664;2023-11-21T10:23:53;6.80;82.40
18321;DHT22;54904;54.350;18.664;2023-11-21T10:26:20;6.80;81.10
18321;DHT22;54904;54.350;18.664;2023-11-21T10:28:56;6.80;81.20
18321;DHT22;54904;54.350;18.664;2023-11-21T10:31:24;6.80;81.20
18321;DHT22;54904;54.350;18.664;2023-11-21T10:33:51;6.80;81.30
18321;DHT22;54904;54.350;18.664;2023-11-21T10:36:27;6.80;82.00
18321;DHT22;54904;54.350;18.664;2023-11-21T10:38:54;6.80;80.40
18321;DHT22;54904;54.350;18.664;2023-11-21T10:41:22;6.70;80.30
18321;DHT22;54904;54.350;18.664;2023-11-21T10:43:53;6.70;80.30
18321;DHT22;54904;54.350;18.664;2023-11-21T10:46:22;6.70;80.10
18321;DHT22;54904;54.350;18.664;2023-11-21T10:48:54;6.60;79.50
18321;DHT22;54904;54.350;18.664;2023-11-21T10:51:22;6.60;79.30
18321;DHT22;54904;54.350;18.664;2023-11-21T10:53:51;6.60;79.50
18321;DHT22;54904;54.350;18.664;2023-11-21T10:56:19;6.60;79.50
18321;DHT22;54904;54.350;18.664;2023-11-21T10:58:49;6.60;79.50
18321;DHT22;54904;54.350;18.664;2023-11-21T11:01:18;6.50;79.80
18321;DHT22;54904;54.350;18.664;2023-11-21T11:03:47;6.60;80.20
18321;DHT22;54904;54.350;18.664;2023-11-21T11:06:15;6.60;79.70
18321;DHT22;54904;54.350;18.664;2023-11-21T11:08:44;6.60;79.40
18321;DHT22;54904;54.350;18.664;2023-11-21T11:11:12;6.60;79.10
18321;DHT22;54904;54.350;18.664;2023-11-21T11:13:43;6.60;79.80
18321;DHT22;54904;54.350;18.664;2023-11-21T11:16:12;6.60;79.10
18321;DHT22;54904;54.350;18.664;2023-11-21T11:18:42;6.60;79.30
18321;DHT22;54904;54.350;18.664;2023-11-21T11:21:28;6.60;79.50
18321;DHT22;54904;54.350;18.664;2023-11-21T11:24:17;6.50;80.50
18321;DHT22;54904;54.350;18.664;2023-11-21T11:26:54;6.50;79.80
18321;DHT22;54904;54.350;18.664;2023-11-21T11:29:27;6.60;79.70
18321;DHT22;54904;54.350;18.664;2023-11-21T11:32:06;6.60;80.00
18321;DHT22;54904;54.350;18.664;2023-11-21T11:34:38;6.60;79.30
18321;DHT22;54904;54.350;18.664;2023-11-21T11:37:09;6.60;79.20
18321;DHT22;54904;54.350;18.664;2023-11-21T11:39:37;6.60;79.30
18321;DHT22;54904;54.350;18.664;2023-11-21T11:42:15;6.60;79.60
18321;DHT22;54904;54.350;18.664;2023-11-21T11:44:50;6.60;79.70
18321;DHT22;54904;54.350;18.664;2023-11-21T11:47:26;6.60;79.40
18321;DHT22;54904;54.350;18.664;2023-11-21T11:49:58;6.60;79.50
18321;DHT22;54904;54.350;18.664;2023-11-21T11:52:40;6.60;79.60
18321;DHT22;54904;54.350;18.664;2023-11-21T11:55:10;6.60;79.60
18321;DHT22;54904;54.350;18.664;2023-11-21T11:57:39;6.50;79.10
18321;DHT22;54904;54.350;18.664;2023-11-21T12:00:11;6.40;79.30
18321;DHT22;54904;54.350;18.664;2023-11-21T12:02:43;6.40;79.40
18321;DHT22;54904;54.350;18.664;2023-11-21T12:05:11;6.40;79.80
18321;DHT22;54904;54.350;18.664;2023-11-21T12:07:43;6.40;80.10
18321;DHT22;54904;54.350;18.664;2023-11-21T12:10:13;6.40;79.70
18321;DHT22;54904;54.350;18.664;2023-11-21T12:12:49;6.30;80.30
18321;DHT22;54904;54.350;18.664;2023-11-21T12:15:16;6.30;79.50
18321;DHT22;54904;54.350;18.664;2023-11-21T12:17:45;6.40;79.40
18321;DHT22;54904;54.350;18.664;2023-11-21T12:20:13;6.30;79.00
18321;DHT22;54904;54.350;18.664;2023-11-21T12:22:45;6.30;79.30
18321;DHT22;54904;54.350;18.664;2023-11-21T12:25:15;6.30;79.40
18321;DHT22;54904;54.350;18.664;2023-11-21T12:27:45;6.30;79.50
18321;DHT22;54904;54.350;18.664;2023-11-21T12:30:14;6.20;79.60
18321;DHT22;54904;54.350;18.664;2023-11-21T12:32:42;6.20;79.60
18321;DHT22;54904;54.350;18.664;2023-11-21T12:35:10;6.20;79.70
18321;DHT22;54904;54.350;18.664;2023-11-21T12:37:37;6.20;79.80
18321;DHT22;54904;54.350;18.664;2023-11-21T12:40:07;6.20;79.80
18321;DHT22;54904;54.350;18.664;2023-11-21T12:42:37;6.30;79.40
18321;DHT22;54904;54.350;18.664;2023-11-21T12:45:21;6.20;78.90
18321;DHT22;54904;54.350;18.664;2023-11-21T12:47:54;6.20;79.00
18321;DHT22;54904;54.350;18.664;2023-11-21T12:50:23;6.20;79.10
18321;DHT22;54904;54.350;18.664;2023-11-21T12:52:57;6.20;79.40
18321;DHT22;54904;54.350;18.664;2023-11-21T12:55:25;6.20;79.60
18321;DHT22;54904;54.350;18.664;2023-11-21T12:57:54;6.20;79.80
18321;DHT22;54904;54.350;18.664;2023-11-21T13:00:31;6.20;79.80
18321;DHT22;54904;54.350;18.664;2023-11-21T13:03:03;6.20;79.50
18321;DHT22;54904;54.350;18.664;2023-11-21T13:05:32;6.20;79.70
18321;DHT22;54904;54.350;18.664;2023-11-21T13:08:01;6.20;80.10
18321;DHT22;54904;54.350;18.664;2023-11-21T13:10:31;6.20;80.20
18321;DHT22;54904;54.350;18.664;2023-11-21T13:12:59;6.10;80.10
18321;DHT22;54904;54.350;18.664;2023-11-21T13:15:32;6.10;80.20
18321;DHT22;54904;54.350;18.664;2023-11-21T13:18:00;6.10;79.70
18321;DHT22;54904;54.350;18.664;2023-11-21T13:20:28;6.10;79.60
18321;DHT22;54904;54.350;18.664;2023-11-21T13:22:56;6.10;80.10
18321;DHT22;54904;54.350;18.664;2023-11-21T13:25:25;6.10;80.30
18321;DHT22;54904;54.350;18.664;2023-11-21T13:27:53;6.10;80.70
18321;DHT22;54904;54.350;18.664;2023-11-21T13:30:21;6.10;81.10
18321;DHT22;54904;54.350;18.664;2023-11-21T13:32:54;6.20;81.30
18321;DHT22;54904;54.350;18.664;2023-11-21T13:35:23;6.20;81.50
18321;DHT22;54904;54.350;18.664;2023-11-21T13:37:57;6.20;81.30
18321;DHT22;54904;54.350;18.664;2023-11-21T13:40:26;6.20;81.20
18321;DHT22;54904;54.350;18.664;2023-11-21T13:42:54;6.20;81.40
18321;DHT22;54904;54.350;18.664;2023-11-21T13:45:26;6.20;81.80
18321;DHT22;54904;54.350;18.664;2023-11-21T13:47:58;6.20;81.90
18321;DHT22;54904;54.350;18.664;2023-11-21T13:50:25;6.30;81.90
18321;DHT22;54904;54.350;18.664;2023-11-21T13:52:58;6.30;81.90
18321;DHT22;54904;54.350;18.664;2023-11-21T13:55:29;6.30;82.10
18321;DHT22;54904;54.350;18.664;2023-11-21T13:57:57;6.30;82.50
18321;DHT22;54904;54.350;18.664;2023-11-21T14:00:24;6.30;82.80
18321;DHT22;54904;54.350;18.664;2023-11-21T14:03:12;6.30;83.20
18321;DHT22;54904;54.350;18.664;2023-11-21T14:05:48;6.30;83.70
18321;DHT22;54904;54.350;18.664;2023-11-21T14:08:18;6.30;84.10
18321;DHT22;54904;54.350;18.664;2023-11-21T14:10:46;6.30;84.50
18321;DHT22;54904;54.350;18.664;2023-11-21T14:13:21;6.30;84.70
18321;DHT22;54904;54.350;18.664;2023-11-21T14:15:49;6.30;85.30
18321;DHT22;54904;54.350;18.664;2023-11-21T14:18:21;6.30;85.40
18321;DHT22;54904;54.350;18.664;2023-11-21T14:20:56;6.30;85.50
18321;DHT22;54904;54.350;18.664;2023-11-21T14:23:23;6.20;85.60
18321;DHT22;54904;54.350;18.664;2023-11-21T14:25:50;6.20;85.90
18321;DHT22;54904;54.350;18.664;2023-11-21T14:28:17;6.20;86.10
18321;DHT22;54904;54.350;18.664;2023-11-21T14:30:45;6.20;86.40
18321;DHT22;54904;54.350;18.664;2023-11-21T14:33:13;6.20;86.70
18321;DHT22;54904;54.350;18.664;2023-11-21T14:35:43;6.30;87.10
18321;DHT22;54904;54.350;18.664;2023-11-21T14:38:11;6.30;87.20
18321;DHT22;54904;54.350;18.664;2023-11-21T14:40:40;6.30;87.20
18321;DHT22;54904;54.350;18.664;2023-11-21T14:43:07;6.30;87.10
18321;DHT22;54904;54.350;18.664;2023-11-21T14:45:34;6.30;86.70
18321;DHT22;54904;54.350;18.664;2023-11-21T14:48:01;6.20;86.50
18321;DHT22;54904;54.350;18.664;2023-11-21T14:50:43;6.30;86.50
18321;DHT22;54904;54.350;18.664;2023-11-21T14:53:35;6.30;86.20
18321;DHT22;54904;54.350;18.664;2023-11-21T14:56:10;6.20;86.30
18321;DHT22;54904;54.350;18.664;2023-11-21T14:58:43;6.20;86.60
18321;DHT22;54904;54.350;18.664;2023-11-21T15:01:10;6.20;86.90
18321;DHT22;54904;54.350;18.664;2023-11-21T15:03:38;6.20;86.80
18321;DHT22;54904;54.350;18.664;2023-11-21T15:06:15;6.20;86.90
18321;DHT22;54904;54.350;18.664;2023-11-21T15:08:50;6.20;86.90
18321;DHT22;54904;54.350;18.664;2023-11-21T15:11:36;6.20;86.60
18321;DHT22;54904;54.350;18.664;2023-11-21T15:14:04;6.20;86.70
18321;DHT22;54904;54.350;18.664;2023-11-21T15:16:34;6.20;86.80
18321;DHT22;54904;54.350;18.664;2023-11-21T15:19:04;6.20;86.70
18321;DHT22;54904;54.350;18.664;2023-11-21T15:21:34;6.20;86.90
18321;DHT22;54904;54.350;18.664;2023-11-21T15:24:01;6.20;86.90
18321;DHT22;54904;54.350;18.664;2023-11-21T15:26:28;6.20;87.10
18321;DHT22;54904;54.350;18.664;2023-11-21T15:28:55;6.20;86.70
18321;DHT22;54904;54.350;18.664;2023-11-21T15:31:23;6.20;86.30
18321;DHT22;54904;54.350;18.664;2023-11-21T15:33:51;6.20;86.10
18321;DHT22;54904;54.350;18.664;2023-11-21T15:36:18;6.10;85.70
18321;DHT22;54904;54.350;18.664;2023-11-21T15:38:47;6.20;85.70
18321;DHT22;54904;54.350;18.664;2023-11-21T15:41:14;6.20;85.60